Time,TemperatureF,DewpointF,PressureIn,WindDirection,WindDirectionDegrees,WindSpeedMPH,WindSpeedGustMPH,Humidity,HourlyPrecipIn,Conditions,Clouds,dailyrainin,SoftwareType,DateUTC
2013-11-07 00:05:00,32.7,30.1,30.31,SE,127,0.0,0.0,90,0.00,,,0.00,Wunderground v.1.15,2013-11-07 06:05:00,
2013-11-07 00:10:00,32.7,30.1,30.31,SW,221,0.0,0.0,90,0.00,,,0.00,Wunderground v.1.15,2013-11-07 06:10:00,
2013-11-07 00:20:00,32.6,30.0,30.31,SW,221,0.0,0.0,90,0.00,,,0.00,Wunderground v.1.15,2013-11-07 06:20:00,
2013-11-07 00:30:00,32.6,30.0,30.31,SE,141,0.0,0.0,90,0.00,,,0.00,Wunderground v.1.15,2013-11-07 06:30:00,
2013-11-07 00:40:00,32.5,29.9,30.32,SSE,148,0.0,0.0,90,0.00,,,0.00,Wunderground v.1.15,2013-11-07 06:40:00,
2013-11-07 00:50:00,32.2,29.6,30.32,SSE,148,0.0,0.0,90,0.00,,,0.00,Wunderground v.1.15,2013-11-07 06:50:00,
2013-11-07 01:00:00,31.8,29.2,30.31,SSE,148,0.0,0.0,90,0.00,,,0.00,Wunderground v.1.15,2013-11-07 07:00:00,
2013-11-07 01:10:00,31.7,29.1,30.31,SSE,148,0.0,0.0,90,0.00,,,0.00,Wunderground v.1.15,2013-11-07 07:10:00,
2013-11-07 01:20:00,31.8,29.5,30.31,SW,226,0.0,0.0,91,0.00,,,0.00,Wunderground v.1.15,2013-11-07 07:20:00,
2013-11-07 01:30:00,31.6,29.3,30.31,SW,227,0.0,0.0,91,0.00,,,0.00,Wunderground v.1.15,2013-11-07 07:30:00,
2013-11-07 01:40:00,31.5,29.2,30.32,SW,226,0.0,0.0,91,0.00,,,0.00,Wunderground v.1.15,2013-11-07 07:40:00,
2013-11-07 01:46:00,31.4,29.1,30.32,SW,226,0.0,0.0,91,0.00,,,0.00,Wunderground v.1.15,2013-11-07 07:46:00,
2013-11-07 01:55:00,31.3,29.0,30.32,SW,226,0.0,0.0,91,0.00,,,0.00,Wunderground v.1.15,2013-11-07 07:55:00,
2013-11-07 02:05:00,31.3,29.0,30.32,SW,224,0.0,0.0,91,0.00,,,0.00,Wunderground v.1.15,2013-11-07 08:05:00,
2013-11-07 02:10:00,31.2,28.9,30.32,SW,224,0.0,0.0,91,0.00,,,0.00,Wunderground v.1.15,2013-11-07 08:10:00,
2013-11-07 02:16:00,31.1,28.8,30.32,SW,223,0.0,0.0,91,0.00,,,0.00,Wunderground v.1.15,2013-11-07 08:16:00,
2013-11-07 02:25:00,31.0,28.7,30.32,SW,218,0.0,0.0,91,0.00,,,0.00,Wunderground v.1.15,2013-11-07 08:25:00,
2013-11-07 02:35:00,30.8,28.5,30.32,SW,218,0.0,0.0,91,0.00,,,0.00,Wunderground v.1.15,2013-11-07 08:35:00,
2013-11-07 02:40:00,30.8,28.5,30.32,SW,218,0.0,0.0,91,0.00,,,0.00,Wunderground v.1.15,2013-11-07 08:40:00,
2013-11-07 02:46:00,30.8,28.5,30.32,SW,218,0.0,0.0,91,0.00,,,0.00,Wunderground v.1.15,2013-11-07 08:46:00,
2013-11-07 02:55:00,30.7,28.4,30.32,SW,218,0.0,0.0,91,0.00,,,0.00,Wunderground v.1.15,2013-11-07 08:55:00,
2013-11-07 03:06:00,30.6,28.3,30.32,SW,218,0.0,0.0,91,0.00,,,0.00,Wunderground v.1.15,2013-11-07 09:06:00,
2013-11-07 03:16:00,30.5,28.5,30.32,SW,218,0.0,0.0,92,0.00,,,0.00,Wunderground v.1.15,2013-11-07 09:16:00,
2013-11-07 03:26:00,30.3,28.3,30.32,SW,219,0.0,0.0,92,0.00,,,0.00,Wunderground v.1.15,2013-11-07 09:26:00,
2013-11-07 03:36:00,30.6,28.6,30.32,SW,232,0.0,0.0,92,0.00,,,0.00,Wunderground v.1.15,2013-11-07 09:36:00,
2013-11-07 03:46:00,30.7,28.7,30.32,SW,232,0.0,0.0,92,0.00,,,0.00,Wunderground v.1.15,2013-11-07 09:46:00,
2013-11-07 03:51:00,30.6,28.6,30.32,SW,232,0.0,0.0,92,0.00,,,0.00,Wunderground v.1.15,2013-11-07 09:51:00,
2013-11-07 04:01:00,30.2,28.2,30.32,SW,232,0.0,0.0,92,0.00,,,0.00,Wunderground v.1.15,2013-11-07 10:01:00,
2013-11-07 04:06:00,30.2,28.2,30.33,SW,232,0.0,0.0,92,0.00,,,0.00,Wunderground v.1.15,2013-11-07 10:06:00,
2013-11-07 04:16:00,30.0,28.0,30.33,SW,231,0.0,0.0,92,0.00,,,0.00,Wunderground v.1.15,2013-11-07 10:16:00,
2013-11-07 04:21:00,30.0,28.0,30.33,SW,232,0.0,0.0,92,0.00,,,0.00,Wunderground v.1.15,2013-11-07 10:21:00,
2013-11-07 04:30:00,29.6,27.6,30.33,SW,232,0.0,0.0,92,0.00,,,0.00,Wunderground v.1.15,2013-11-07 10:30:00,
2013-11-07 04:35:00,29.4,27.4,30.33,SW,232,0.0,0.0,92,0.00,,,0.00,Wunderground v.1.15,2013-11-07 10:35:00,
2013-11-07 04:46:00,29.2,27.2,30.33,SW,232,0.0,0.0,92,0.00,,,0.00,Wunderground v.1.15,2013-11-07 10:46:00,
2013-11-07 04:55:00,29.1,27.1,30.33,SW,232,0.0,0.0,92,0.00,,,0.00,Wunderground v.1.15,2013-11-07 10:55:00,
2013-11-07 05:05:00,29.0,27.0,30.34,SSW,203,0.0,0.0,92,0.00,,,0.00,Wunderground v.1.15,2013-11-07 11:05:00,
2013-11-07 05:16:00,29.1,27.3,30.34,SSW,203,0.0,0.0,93,0.00,,,0.00,Wunderground v.1.15,2013-11-07 11:16:00,
2013-11-07 05:25:00,29.3,27.5,30.35,West,264,0.0,0.0,93,0.00,,,0.00,Wunderground v.1.15,2013-11-07 11:25:00,
2013-11-07 05:30:00,29.4,27.6,30.35,West,264,0.0,0.0,93,0.00,,,0.00,Wunderground v.1.15,2013-11-07 11:30:00,
2013-11-07 05:40:00,29.6,27.8,30.35,West,264,0.0,0.0,93,0.00,,,0.00,Wunderground v.1.15,2013-11-07 11:40:00,
2013-11-07 05:50:00,30.1,28.3,30.35,West,264,0.0,0.0,93,0.00,,,0.00,Wunderground v.1.15,2013-11-07 11:50:00,
2013-11-07 05:55:00,30.3,28.5,30.36,West,276,0.0,0.0,93,0.00,,,0.00,Wunderground v.1.15,2013-11-07 11:55:00,
2013-11-07 06:00:00,30.5,28.7,30.36,WNW,295,0.0,0.0,93,0.00,,,0.00,Wunderground v.1.15,2013-11-07 12:00:00,
2013-11-07 06:05:00,30.6,28.8,30.36,WNW,295,0.0,0.0,93,0.00,,,0.00,Wunderground v.1.15,2013-11-07 12:05:00,
2013-11-07 06:16:00,30.6,28.6,30.36,WNW,295,0.0,0.0,92,0.00,,,0.00,Wunderground v.1.15,2013-11-07 12:16:00,
2013-11-07 06:25:00,30.7,28.7,30.36,WNW,295,0.0,0.0,92,0.00,,,0.00,Wunderground v.1.15,2013-11-07 12:25:00,
2013-11-07 06:31:00,30.7,28.7,30.36,WNW,301,0.0,0.0,92,0.00,,,0.00,Wunderground v.1.15,2013-11-07 12:31:00,
2013-11-07 06:40:00,31.0,28.9,30.37,WNW,301,0.0,0.0,92,0.00,,,0.00,Wunderground v.1.15,2013-11-07 12:40:00,
2013-11-07 06:46:00,31.0,28.9,30.37,WNW,301,0.0,0.0,92,0.00,,,0.00,Wunderground v.1.15,2013-11-07 12:46:00,
2013-11-07 06:55:00,31.1,28.8,30.37,WNW,301,0.0,0.0,91,0.00,,,0.00,Wunderground v.1.15,2013-11-07 12:55:00,
2013-11-07 07:00:00,31.3,29.0,30.38,WNW,302,0.0,1.0,91,0.00,,,0.00,Wunderground v.1.15,2013-11-07 13:00:00,
2013-11-07 07:10:00,31.6,29.0,30.38,NW,314,0.0,0.0,90,0.00,,,0.00,Wunderground v.1.15,2013-11-07 13:10:00,
2013-11-07 07:16:00,31.6,29.0,30.38,NW,314,0.0,0.0,90,0.00,,,0.00,Wunderground v.1.15,2013-11-07 13:16:00,
2013-11-07 07:25:00,31.8,28.9,30.38,NW,314,0.0,1.0,89,0.00,,,0.00,Wunderground v.1.15,2013-11-07 13:25:00,
2013-11-07 07:35:00,32.0,29.1,30.39,NW,314,0.0,0.0,89,0.00,,,0.00,Wunderground v.1.15,2013-11-07 13:35:00,
2013-11-07 07:40:00,32.1,29.2,30.39,NW,312,0.0,0.0,89,0.00,,,0.00,Wunderground v.1.15,2013-11-07 13:40:00,
2013-11-07 07:46:00,32.2,29.0,30.39,NNW,328,0.0,0.0,88,0.00,,,0.00,Wunderground v.1.15,2013-11-07 13:46:00,
2013-11-07 07:55:00,32.5,29.3,30.40,NNW,329,0.0,1.0,88,0.00,,,0.00,Wunderground v.1.15,2013-11-07 13:55:00,
2013-11-07 08:05:00,33.1,29.7,30.40,NW,317,1.0,2.0,87,0.00,,,0.00,Wunderground v.1.15,2013-11-07 14:05:00,
2013-11-07 08:10:00,33.5,29.8,30.40,NNW,339,1.0,2.0,86,0.00,,,0.00,Wunderground v.1.15,2013-11-07 14:10:00,
2013-11-07 08:16:00,33.8,30.1,30.40,NW,321,2.0,2.0,86,0.00,,,0.00,Wunderground v.1.15,2013-11-07 14:16:00,
2013-11-07 08:25:00,34.3,30.0,30.41,NW,319,1.0,1.0,84,0.00,,,0.00,Wunderground v.1.15,2013-11-07 14:25:00,
2013-11-07 08:35:00,35.0,30.1,30.41,NW,323,1.0,3.0,82,0.00,,,0.00,Wunderground v.1.15,2013-11-07 14:35:00,
2013-11-07 08:45:00,35.9,30.3,30.42,North,6,2.0,2.0,80,0.00,,,0.00,Wunderground v.1.15,2013-11-07 14:45:00,
2013-11-07 08:50:00,36.2,30.3,30.42,NNW,327,2.0,5.0,79,0.00,,,0.00,Wunderground v.1.15,2013-11-07 14:50:00,
2013-11-07 09:00:00,36.7,30.2,30.42,NW,318,3.0,3.0,77,0.00,,,0.00,Wunderground v.1.15,2013-11-07 15:00:00,
2013-11-07 09:10:00,37.1,30.2,30.42,NW,324,3.0,3.0,76,0.00,,,0.00,Wunderground v.1.15,2013-11-07 15:10:00,
2013-11-07 09:15:00,37.4,30.2,30.42,NNW,330,2.0,3.0,75,0.00,,,0.00,Wunderground v.1.15,2013-11-07 15:15:00,
2013-11-07 09:25:00,37.7,30.2,30.42,NW,322,3.0,3.0,74,0.00,,,0.00,Wunderground v.1.15,2013-11-07 15:25:00,
2013-11-07 09:35:00,38.0,30.4,30.42,NW,304,3.0,3.0,74,0.00,,,0.00,Wunderground v.1.15,2013-11-07 15:35:00,
2013-11-07 09:40:00,38.4,30.2,30.42,NNW,334,3.0,3.0,72,0.00,,,0.00,Wunderground v.1.15,2013-11-07 15:40:00,
2013-11-07 09:50:00,39.1,30.5,30.42,North,356,2.0,2.0,71,0.00,,,0.00,Wunderground v.1.15,2013-11-07 15:50:00,
2013-11-07 09:55:00,39.3,29.6,30.42,NW,316,3.0,3.0,68,0.00,,,0.00,Wunderground v.1.15,2013-11-07 15:55:00,
2013-11-07 10:05:00,39.9,30.5,30.43,NNE,17,3.0,3.0,69,0.00,,,0.00,Wunderground v.1.15,2013-11-07 16:05:00,
2013-11-07 10:10:00,40.1,30.4,30.43,NW,321,3.0,3.0,68,0.00,,,0.00,Wunderground v.1.15,2013-11-07 16:10:00,
2013-11-07 10:20:00,40.6,30.5,30.43,NNW,340,3.0,3.0,67,0.00,,,0.00,Wunderground v.1.15,2013-11-07 16:20:00,
2013-11-07 10:30:00,41.0,30.1,30.43,NNW,334,3.0,3.0,65,0.00,,,0.00,Wunderground v.1.15,2013-11-07 16:30:00,
2013-11-07 10:35:00,41.3,30.4,30.43,NW,316,3.0,3.0,65,0.00,,,0.00,Wunderground v.1.15,2013-11-07 16:35:00,
2013-11-07 10:55:00,42.0,30.3,30.44,North,3,3.0,3.0,63,0.00,,,0.00,Wunderground v.1.15,2013-11-07 16:55:00,
2013-11-07 11:02:00,42.1,30.0,30.44,NW,315,4.0,5.0,62,0.00,,,0.00,Wunderground v.1.15,2013-11-07 17:02:00,
2013-11-07 11:10:00,42.7,30.6,30.44,NNW,341,3.0,3.0,62,0.00,,,0.00,Wunderground v.1.15,2013-11-07 17:10:00,
2013-11-07 11:20:00,43.0,30.1,30.44,North,358,3.0,3.0,60,0.00,,,0.00,Wunderground v.1.15,2013-11-07 17:20:00,
2013-11-07 11:32:00,43.2,29.8,30.44,NNW,332,3.0,4.0,59,0.00,,,0.00,Wunderground v.1.15,2013-11-07 17:32:00,
2013-11-07 11:40:00,43.8,30.4,30.43,NW,320,2.0,3.0,59,0.00,,,0.00,Wunderground v.1.15,2013-11-07 17:40:00,
2013-11-07 12:05:00,44.4,28.8,30.43,NW,321,3.0,5.0,54,0.00,,,0.00,Wunderground v.1.15,2013-11-07 18:05:00,
2013-11-07 12:10:00,44.7,29.1,30.42,NW,311,3.0,5.0,54,0.00,,,0.00,Wunderground v.1.15,2013-11-07 18:10:00,
2013-11-07 12:20:00,45.2,28.6,30.42,West,278,3.0,3.0,52,0.00,,,0.00,Wunderground v.1.15,2013-11-07 18:20:00,
2013-11-07 12:30:00,45.6,27.0,30.42,NW,321,3.0,4.0,48,0.00,,,0.00,Wunderground v.1.15,2013-11-07 18:30:00,
2013-11-07 12:35:00,45.7,26.6,30.42,NW,315,3.0,3.0,47,0.00,,,0.00,Wunderground v.1.15,2013-11-07 18:35:00,
2013-11-07 12:45:00,45.9,26.8,30.42,West,270,3.0,3.0,47,0.00,,,0.00,Wunderground v.1.15,2013-11-07 18:45:00,
2013-11-07 12:51:00,46.1,27.0,30.41,NW,321,3.0,3.0,47,0.00,,,0.00,Wunderground v.1.15,2013-11-07 18:51:00,
2013-11-07 13:00:00,46.5,26.8,30.41,NW,322,3.0,5.0,46,0.00,,,0.00,Wunderground v.1.15,2013-11-07 19:00:00,
2013-11-07 13:10:00,46.7,25.9,30.41,NW,315,3.0,3.0,44,0.00,,,0.00,Wunderground v.1.15,2013-11-07 19:10:00,
2013-11-07 13:20:00,47.1,26.8,30.41,NW,315,3.0,3.0,45,0.00,,,0.00,Wunderground v.1.15,2013-11-07 19:20:00,
2013-11-07 13:25:00,47.3,25.3,30.41,NNW,335,3.0,3.0,42,0.00,,,0.00,Wunderground v.1.15,2013-11-07 19:25:00,
2013-11-07 13:30:00,47.3,25.9,30.40,NW,317,2.0,2.0,43,0.00,,,0.00,Wunderground v.1.15,2013-11-07 19:30:00,
2013-11-07 13:50:00,47.5,23.7,30.40,NW,322,3.0,3.0,39,0.00,,,0.00,Wunderground v.1.15,2013-11-07 19:50:00,
2013-11-07 13:56:00,47.9,25.3,30.40,NNW,328,2.0,3.0,41,0.00,,,0.00,Wunderground v.1.15,2013-11-07 19:56:00,
2013-11-07 14:02:00,48.2,25.6,30.40,NW,325,2.0,4.0,41,0.00,,,0.00,Wunderground v.1.15,2013-11-07 20:02:00,
2013-11-07 14:15:00,48.0,24.2,30.40,NW,313,3.0,3.0,39,0.00,,,0.00,Wunderground v.1.15,2013-11-07 20:15:00,
2013-11-07 14:26:00,48.2,23.1,30.39,NNW,330,2.0,5.0,37,0.00,,,0.00,Wunderground v.1.15,2013-11-07 20:26:00,
2013-11-07 14:35:00,47.9,22.2,30.39,NW,316,3.0,4.0,36,0.00,,,0.00,Wunderground v.1.15,2013-11-07 20:35:00,
2013-11-07 14:41:00,47.9,22.2,30.39,NW,320,3.0,4.0,36,0.00,,,0.00,Wunderground v.1.15,2013-11-07 20:41:00,
2013-11-07 14:50:00,48.1,23.0,30.39,NW,322,3.0,3.0,37,0.00,,,0.00,Wunderground v.1.15,2013-11-07 20:50:00,
2013-11-07 14:56:00,48.2,23.1,30.39,NNW,330,3.0,3.0,37,0.00,,,0.00,Wunderground v.1.15,2013-11-07 20:56:00,
2013-11-07 15:05:00,48.1,23.0,30.39,NNW,330,2.0,2.0,37,0.00,,,0.00,Wunderground v.1.15,2013-11-07 21:05:00,
2013-11-07 15:11:00,48.1,22.4,30.39,NW,314,2.0,2.0,36,0.00,,,0.00,Wunderground v.1.15,2013-11-07 21:11:00,
2013-11-07 15:16:00,48.1,23.7,30.39,NW,323,2.0,2.0,38,0.00,,,0.00,Wunderground v.1.15,2013-11-07 21:16:00,
2013-11-07 15:26:00,48.1,24.3,30.39,NW,310,1.0,1.0,39,0.00,,,0.00,Wunderground v.1.15,2013-11-07 21:26:00,
2013-11-07 15:35:00,48.1,23.7,30.39,ESE,108,0.0,1.0,38,0.00,,,0.00,Wunderground v.1.15,2013-11-07 21:35:00,
2013-11-07 15:40:00,48.2,23.7,30.39,SSW,195,1.0,1.0,38,0.00,,,0.00,Wunderground v.1.15,2013-11-07 21:40:00,
2013-11-07 15:50:00,47.9,23.5,30.39,NW,316,1.0,1.0,38,0.00,,,0.00,Wunderground v.1.15,2013-11-07 21:50:00,
2013-11-07 15:56:00,47.7,23.9,30.40,NW,314,0.0,1.0,39,0.00,,,0.00,Wunderground v.1.15,2013-11-07 21:56:00,
2013-11-07 16:05:00,47.4,22.4,30.39,NW,319,1.0,1.0,37,0.00,,,0.00,Wunderground v.1.15,2013-11-07 22:05:00,
2013-11-07 16:11:00,47.2,22.9,30.39,West,273,1.0,1.0,38,0.00,,,0.00,Wunderground v.1.15,2013-11-07 22:11:00,
2013-11-07 16:20:00,46.9,22.0,30.39,NW,321,0.0,0.0,37,0.00,,,0.00,Wunderground v.1.15,2013-11-07 22:20:00,
2013-11-07 16:26:00,46.7,22.4,30.39,NW,317,1.0,1.0,38,0.00,,,0.00,Wunderground v.1.15,2013-11-07 22:26:00,
2013-11-07 16:35:00,46.5,22.2,30.39,NW,323,1.0,1.0,38,0.00,,,0.00,Wunderground v.1.15,2013-11-07 22:35:00,
2013-11-07 16:41:00,46.3,22.7,30.39,NW,323,0.0,0.0,39,0.00,,,0.00,Wunderground v.1.15,2013-11-07 22:41:00,
2013-11-07 16:50:00,45.9,22.9,30.39,NW,323,0.0,0.0,40,0.00,,,0.00,Wunderground v.1.15,2013-11-07 22:50:00,
2013-11-07 16:56:00,45.5,23.1,30.38,NW,323,0.0,0.0,41,0.00,,,0.00,Wunderground v.1.15,2013-11-07 22:56:00,
2013-11-07 17:05:00,44.6,23.5,30.39,NW,323,0.0,0.0,43,0.00,,,0.00,Wunderground v.1.15,2013-11-07 23:05:00,
2013-11-07 17:11:00,44.1,23.0,30.38,NW,323,0.0,0.0,43,0.00,,,0.00,Wunderground v.1.15,2013-11-07 23:11:00,
2013-11-07 17:20:00,43.1,22.6,30.39,NW,323,0.0,0.0,44,0.00,,,0.00,Wunderground v.1.15,2013-11-07 23:20:00,
2013-11-07 17:31:00,42.4,23.1,30.38,NW,323,0.0,0.0,46,0.00,,,0.00,Wunderground v.1.15,2013-11-07 23:31:00,
2013-11-07 17:41:00,41.5,23.7,30.38,NW,323,0.0,0.0,49,0.00,,,0.00,Wunderground v.1.15,2013-11-07 23:41:00,
2013-11-07 17:50:00,40.7,22.5,30.39,NW,323,0.0,0.0,48,0.00,,,0.00,Wunderground v.1.15,2013-11-07 23:50:00,
2013-11-07 17:56:00,40.7,22.5,30.39,NW,323,0.0,0.0,48,0.00,,,0.00,Wunderground v.1.15,2013-11-07 23:56:00,
2013-11-07 18:05:00,41.0,22.8,30.39,NW,323,0.0,0.0,48,0.00,,,0.00,Wunderground v.1.15,2013-11-08 00:05:00,
2013-11-07 18:15:00,41.0,23.8,30.38,NW,323,0.0,0.0,50,0.00,,,0.00,Wunderground v.1.15,2013-11-08 00:15:00,
2013-11-07 18:26:00,40.2,23.0,30.38,NW,323,0.0,0.0,50,0.00,,,0.00,Wunderground v.1.15,2013-11-08 00:26:00,
2013-11-07 18:35:00,40.0,23.3,30.38,NW,324,0.0,0.0,51,0.00,,,0.00,Wunderground v.1.15,2013-11-08 00:35:00,
2013-11-07 18:41:00,40.1,23.4,30.38,North,1,0.0,0.0,51,0.00,,,0.00,Wunderground v.1.15,2013-11-08 00:41:00,
2013-11-07 18:50:00,39.8,24.5,30.38,North,1,0.0,0.0,54,0.00,,,0.00,Wunderground v.1.15,2013-11-08 00:50:00,
2013-11-07 18:56:00,39.5,24.2,30.38,North,1,0.0,0.0,54,0.00,,,0.00,Wunderground v.1.15,2013-11-08 00:56:00,
2013-11-07 19:05:00,39.1,23.4,30.37,North,1,0.0,0.0,53,0.00,,,0.00,Wunderground v.1.15,2013-11-08 01:05:00,
2013-11-07 19:11:00,39.0,23.7,30.37,North,1,0.0,0.0,54,0.00,,,0.00,Wunderground v.1.15,2013-11-08 01:11:00,
2013-11-07 19:20:00,38.4,24.1,30.37,North,1,0.0,0.0,56,0.00,,,0.00,Wunderground v.1.15,2013-11-08 01:20:00,
2013-11-07 19:26:00,38.1,23.8,30.37,North,1,0.0,0.0,56,0.00,,,0.00,Wunderground v.1.15,2013-11-08 01:26:00,
2013-11-07 19:35:00,37.9,24.0,30.37,North,1,0.0,0.0,57,0.00,,,0.00,Wunderground v.1.15,2013-11-08 01:35:00,
2013-11-07 19:41:00,37.8,24.3,30.37,North,1,0.0,0.0,58,0.00,,,0.00,Wunderground v.1.15,2013-11-08 01:41:00,
2013-11-07 19:50:00,37.4,24.4,30.36,North,1,0.0,0.0,59,0.00,,,0.00,Wunderground v.1.15,2013-11-08 01:50:00,
2013-11-07 19:56:00,37.5,24.9,30.36,North,1,0.0,0.0,60,0.00,,,0.00,Wunderground v.1.15,2013-11-08 01:56:00,
2013-11-07 20:05:00,37.8,24.7,30.36,North,1,0.0,0.0,59,0.00,,,0.00,Wunderground v.1.15,2013-11-08 02:05:00,
2013-11-07 20:11:00,37.8,25.1,30.36,North,1,0.0,0.0,60,0.00,,,0.00,Wunderground v.1.15,2013-11-08 02:11:00,
2013-11-07 20:20:00,37.7,24.2,30.36,North,1,0.0,0.0,58,0.00,,,0.00,Wunderground v.1.15,2013-11-08 02:20:00,
2013-11-07 20:25:00,37.8,24.7,30.36,North,1,0.0,0.0,59,0.00,,,0.00,Wunderground v.1.15,2013-11-08 02:25:00,
2013-11-07 20:35:00,37.5,24.5,30.36,North,1,0.0,0.0,59,0.00,,,0.00,Wunderground v.1.15,2013-11-08 02:35:00,
2013-11-07 20:40:00,37.4,24.4,30.36,North,1,0.0,0.0,59,0.00,,,0.00,Wunderground v.1.15,2013-11-08 02:40:00,
2013-11-07 20:50:00,37.0,24.8,30.36,North,1,0.0,0.0,61,0.00,,,0.00,Wunderground v.1.15,2013-11-08 02:50:00,
2013-11-07 20:55:00,36.8,25.0,30.36,North,1,0.0,0.0,62,0.00,,,0.00,Wunderground v.1.15,2013-11-08 02:55:00,
2013-11-07 21:05:00,36.4,24.6,30.36,North,1,0.0,0.0,62,0.00,,,0.00,Wunderground v.1.15,2013-11-08 03:05:00,
2013-11-07 21:10:00,36.4,24.6,30.36,North,1,0.0,0.0,62,0.00,,,0.00,Wunderground v.1.15,2013-11-08 03:10:00,
2013-11-07 21:20:00,36.3,25.3,30.36,North,1,0.0,0.0,64,0.00,,,0.00,Wunderground v.1.15,2013-11-08 03:20:00,
2013-11-07 21:30:00,36.1,25.1,30.36,North,1,0.0,0.0,64,0.00,,,0.00,Wunderground v.1.15,2013-11-08 03:30:00,
2013-11-07 21:36:00,36.0,25.0,30.36,North,1,0.0,0.0,64,0.00,,,0.00,Wunderground v.1.15,2013-11-08 03:36:00,
2013-11-07 21:45:00,36.0,25.0,30.36,North,1,0.0,0.0,64,0.00,,,0.00,Wunderground v.1.15,2013-11-08 03:45:00,
2013-11-07 21:50:00,35.8,24.8,30.36,North,1,0.0,0.0,64,0.00,,,0.00,Wunderground v.1.15,2013-11-08 03:50:00,
2013-11-07 22:00:00,35.8,24.8,30.35,North,1,0.0,0.0,64,0.00,,,0.00,Wunderground v.1.15,2013-11-08 04:00:00,
2013-11-07 22:10:00,35.9,24.9,30.35,North,1,0.0,0.0,64,0.00,,,0.00,Wunderground v.1.15,2013-11-08 04:10:00,
2013-11-07 22:15:00,35.7,25.1,30.35,North,1,0.0,0.0,65,0.00,,,0.00,Wunderground v.1.15,2013-11-08 04:15:00,
2013-11-07 22:25:00,35.4,25.2,30.35,North,1,0.0,0.0,66,0.00,,,0.00,Wunderground v.1.15,2013-11-08 04:25:00,
2013-11-07 22:35:00,35.2,24.6,30.34,North,1,0.0,0.0,65,0.00,,,0.00,Wunderground v.1.15,2013-11-08 04:35:00,
2013-11-07 22:40:00,35.2,25.3,30.34,North,1,0.0,0.0,67,0.00,,,0.00,Wunderground v.1.15,2013-11-08 04:40:00,
2013-11-07 22:50:00,34.7,25.2,30.34,North,1,0.0,0.0,68,0.00,,,0.00,Wunderground v.1.15,2013-11-08 04:50:00,
2013-11-07 22:55:00,34.6,25.5,30.34,North,1,0.0,0.0,69,0.00,,,0.00,Wunderground v.1.15,2013-11-08 04:55:00,
2013-11-07 23:05:00,34.5,25.7,30.33,North,1,0.0,0.0,70,0.00,,,0.00,Wunderground v.1.15,2013-11-08 05:05:00,
2013-11-07 23:10:00,34.5,25.7,30.33,North,1,0.0,0.0,70,0.00,,,0.00,Wunderground v.1.15,2013-11-08 05:10:00,
2013-11-07 23:20:00,34.8,25.7,30.33,SSE,164,0.0,0.0,69,0.00,,,0.00,Wunderground v.1.15,2013-11-08 05:20:00,
2013-11-07 23:25:00,35.0,25.9,30.33,SSE,163,0.0,0.0,69,0.00,,,0.00,Wunderground v.1.15,2013-11-08 05:25:00,
2013-11-07 23:35:00,35.0,25.5,30.33,SSE,147,0.0,0.0,68,0.00,,,0.00,Wunderground v.1.15,2013-11-08 05:35:00,
2013-11-07 23:40:00,35.0,25.5,30.33,SE,125,0.0,0.0,68,0.00,,,0.00,Wunderground v.1.15,2013-11-08 05:40:00,
2013-11-07 23:50:00,34.7,25.6,30.32,SE,143,0.0,0.0,69,0.00,,,0.00,Wunderground v.1.15,2013-11-08 05:50:00,
2013-11-07 23:55:00,34.5,25.7,30.32,SE,143,0.0,0.0,70,0.00,,,0.00,Wunderground v.1.15,2013-11-08 05:55:00,